Time,TemperatureF,DewpointF,PressureIn,WindDirection,WindDirectionDegrees,WindSpeedMPH,WindSpeedGustMPH,Humidity,HourlyPrecipIn,Conditions,Clouds,dailyrainin,SoftwareType,DateUTC
2013-06-17 02:00:00,57.2,48.6,30.03,SE,135,0.4,0.4,73,0.00,,,0.00,WUHU216HW,2013-06-17 09:00:00,
2013-06-17 02:01:00,57.2,48.6,30.03,SE,135,0.4,0.4,73,0.00,,,0.00,WUHU216HW,2013-06-17 09:01:00,
2013-06-17 02:06:00,57.2,48.6,30.03,SE,135,0.4,0.4,73,0.00,,,0.00,WUHU216HW,2013-06-17 09:06:00,
2013-06-17 03:01:00,56.5,48.6,30.03,SSE,158,0.4,0.4,75,0.00,,,0.00,WUHU216HW,2013-06-17 10:01:00,
2013-06-17 03:06:00,56.5,48.6,30.03,SSE,158,0.4,0.4,75,0.00,,,0.00,WUHU216HW,2013-06-17 10:06:00,
2013-06-17 03:11:00,56.2,48.6,30.03,SSW,203,0.2,0.4,76,0.00,,,0.00,WUHU216HW,2013-06-17 10:11:00,
2013-06-17 03:16:00,56.2,48.6,30.03,South,180,0.0,0.4,76,0.00,,,0.00,WUHU216HW,2013-06-17 10:16:00,
2013-06-17 03:21:00,56.3,49.1,30.03,South,180,0.0,0.4,77,0.00,,,0.00,WUHU216HW,2013-06-17 10:21:00,
2013-06-17 03:26:00,56.3,49.1,30.03,SSE,158,0.4,0.4,77,0.00,,,0.00,WUHU216HW,2013-06-17 10:26:00,
2013-06-17 03:31:00,56.0,48.8,30.03,SSE,158,0.0,0.4,77,0.00,,,0.00,WUHU216HW,2013-06-17 10:31:00,
2013-06-17 03:36:00,55.8,48.6,30.03,SSE,158,0.0,0.4,77,0.00,,,0.00,WUHU216HW,2013-06-17 10:36:00,
2013-06-17 03:41:00,55.8,48.6,30.03,SSE,158,0.4,0.4,77,0.00,,,0.00,WUHU216HW,2013-06-17 10:41:00,
2013-06-17 03:46:00,55.6,48.5,30.03,SE,135,0.4,0.4,77,0.00,,,0.00,WUHU216HW,2013-06-17 10:46:00,
2013-06-17 03:47:00,55.6,48.5,30.03,SE,135,0.4,0.4,77,0.00,,,0.00,WUHU216HW,2013-06-17 10:47:00,
2013-06-17 03:51:00,55.6,48.5,30.03,SE,135,0.4,0.4,77,0.00,,,0.00,WUHU216HW,2013-06-17 10:51:00,
2013-06-17 03:56:00,55.6,48.5,30.03,SE,135,0.4,0.4,77,0.00,,,0.00,WUHU216HW,2013-06-17 10:56:00,
2013-06-17 04:00:00,55.3,48.5,30.03,SE,135,0.0,0.0,78,0.00,,,0.00,WUHU216HW,2013-06-17 11:00:00,
2013-06-17 04:02:00,55.3,48.5,30.03,SE,135,0.0,0.0,78,0.00,,,0.00,WUHU216HW,2013-06-17 11:02:00,
2013-06-17 04:06:00,55.3,48.5,30.03,SE,135,0.0,0.0,78,0.00,,,0.00,WUHU216HW,2013-06-17 11:06:00,
2013-06-17 07:01:00,54.7,49.3,30.03,West,270,0.4,0.4,82,0.00,,,0.00,WUHU216HW,2013-06-17 14:01:00,
2013-06-17 07:06:00,56.0,50.9,30.04,WSW,248,0.9,0.9,83,0.00,,,0.00,WUHU216HW,2013-06-17 14:06:00,
2013-06-17 07:11:00,57.6,52.5,30.04,WNW,293,0.0,0.9,83,0.00,,,0.00,WUHU216HW,2013-06-17 14:11:00,
2013-06-17 07:16:00,59.4,53.7,30.04,WSW,248,0.0,1.1,81,0.00,,,0.00,WUHU216HW,2013-06-17 14:16:00,
2013-06-17 07:21:00,59.8,52.9,30.03,WSW,248,0.0,1.1,78,0.00,,,0.00,WUHU216HW,2013-06-17 14:21:00,
2013-06-17 07:26:00,58.9,51.3,30.03,West,270,1.1,1.8,76,0.00,,,0.00,WUHU216HW,2013-06-17 14:26:00,
2013-06-17 07:31:00,58.0,51.1,30.03,West,270,0.9,2.0,78,0.00,,,0.00,WUHU216HW,2013-06-17 14:31:00,
2013-06-17 07:36:00,57.1,50.9,30.03,West,270,0.4,2.0,80,0.00,,,0.00,WUHU216HW,2013-06-17 14:36:00,
2013-06-17 07:41:00,56.9,51.1,30.03,WNW,293,0.7,1.3,81,0.00,,,0.00,WUHU216HW,2013-06-17 14:41:00,
2013-06-17 07:46:00,56.9,51.1,30.03,West,270,1.1,1.3,81,0.00,,,0.00,WUHU216HW,2013-06-17 14:46:00,
2013-06-17 07:51:00,56.9,51.1,30.04,WNW,293,0.9,1.1,81,0.00,,,0.00,WUHU216HW,2013-06-17 14:51:00,
2013-06-17 07:57:00,57.1,51.3,30.04,West,270,1.1,1.8,81,0.00,,,0.00,WUHU216HW,2013-06-17 14:57:00,
2013-06-17 08:02:00,57.2,51.1,30.04,WNW,293,0.7,1.8,80,0.00,,,0.00,WUHU216HW,2013-06-17 15:02:00,
2013-06-17 08:07:00,57.6,51.9,30.04,WNW,293,0.4,1.6,81,0.00,,,0.00,WUHU216HW,2013-06-17 15:07:00,
2013-06-17 08:12:00,57.8,51.7,30.04,WNW,293,1.8,1.8,80,0.00,,,0.00,WUHU216HW,2013-06-17 15:12:00,
2013-06-17 08:17:00,57.8,51.7,30.04,West,270,1.3,1.8,80,0.00,,,0.00,WUHU216HW,2013-06-17 15:17:00,
2013-06-17 08:24:00,58.5,52.0,30.05,NW,315,0.0,0.0,79,0.00,,,0.00,WUHU216HW,2013-06-17 15:24:00,
2013-06-17 08:29:00,59.0,52.6,30.04,WSW,248,0.7,1.6,79,0.00,,,0.00,WUHU216HW,2013-06-17 15:29:00,
2013-06-17 08:34:00,59.8,52.6,30.04,WSW,248,0.4,2.5,77,0.00,,,0.00,WUHU216HW,2013-06-17 15:34:00,
2013-06-17 08:39:00,59.6,52.4,30.05,WNW,293,1.3,2.5,77,0.00,,,0.00,WUHU216HW,2013-06-17 15:39:00,
2013-06-17 08:44:00,59.6,52.4,30.04,ESE,113,0.4,1.8,77,0.00,,,0.00,WUHU216HW,2013-06-17 15:44:00,
2013-06-17 08:49:00,59.9,52.4,30.04,South,180,1.1,1.6,76,0.00,,,0.00,WUHU216HW,2013-06-17 15:49:00,
2013-06-17 08:54:00,60.3,52.7,30.05,West,270,1.1,1.1,76,0.00,,,0.00,WUHU216HW,2013-06-17 15:54:00,
2013-06-17 08:59:00,60.1,52.2,30.05,WSW,248,0.2,1.1,75,0.00,,,0.00,WUHU216HW,2013-06-17 15:59:00,
2013-06-17 09:00:00,60.1,52.2,30.05,SW,225,3.4,3.4,75,0.00,,,0.00,WUHU216HW,2013-06-17 16:00:00,
2013-06-17 09:05:00,60.1,52.2,30.05,SW,225,3.4,3.4,75,0.00,,,0.00,WUHU216HW,2013-06-17 16:05:00,
2013-06-17 10:01:00,64.8,54.0,30.04,WSW,248,0.4,0.4,68,0.00,,,0.00,WUHU216HW,2013-06-17 17:01:00,
2013-06-17 10:06:00,64.8,53.6,30.04,SW,225,0.4,2.5,67,0.00,,,0.00,WUHU216HW,2013-06-17 17:06:00,
2013-06-17 10:11:00,65.2,54.4,30.03,SSW,203,1.8,2.7,68,0.00,,,0.00,WUHU216HW,2013-06-17 17:11:00,
2013-06-17 10:16:00,66.1,55.2,30.04,WSW,248,0.7,2.7,68,0.00,,,0.00,WUHU216HW,2013-06-17 17:16:00,
2013-06-17 10:21:00,66.4,54.3,30.04,SSW,203,0.7,2.5,65,0.00,,,0.00,WUHU216HW,2013-06-17 17:21:00,
2013-06-17 10:26:00,66.2,54.1,30.04,WNW,293,0.9,2.5,65,0.00,,,0.00,WUHU216HW,2013-06-17 17:26:00,
2013-06-17 10:31:00,65.9,54.2,30.04,West,270,2.0,4.3,66,0.00,,,0.00,WUHU216HW,2013-06-17 17:31:00,
2013-06-17 10:36:00,66.4,55.1,30.04,SE,135,1.1,4.3,67,0.00,,,0.00,WUHU216HW,2013-06-17 17:36:00,
2013-06-17 10:41:00,67.0,55.6,30.04,SE,135,3.6,3.6,67,0.00,,,0.00,WUHU216HW,2013-06-17 17:41:00,
2013-06-17 10:46:00,68.2,56.4,30.05,SW,225,1.6,4.0,66,0.00,,,0.00,WUHU216HW,2013-06-17 17:46:00,
2013-06-17 10:52:00,68.4,56.2,30.04,West,270,2.7,4.0,65,0.00,,,0.00,WUHU216HW,2013-06-17 17:52:00,
2013-06-17 10:57:00,68.2,55.5,30.04,SE,135,1.8,4.0,64,0.00,,,0.00,WUHU216HW,2013-06-17 17:57:00,
2013-06-17 11:02:00,68.8,54.8,30.05,West,270,0.7,1.8,61,0.00,,,0.00,WUHU216HW,2013-06-17 18:02:00,
2013-06-17 11:07:00,68.8,55.6,30.05,SSW,203,2.7,2.7,63,0.00,,,0.00,WUHU216HW,2013-06-17 18:07:00,
2013-06-17 11:12:00,69.7,56.5,30.05,SE,135,2.0,3.8,63,0.00,,,0.00,WUHU216HW,2013-06-17 18:12:00,
2013-06-17 11:17:00,70.0,55.1,30.04,South,180,1.3,3.8,59,0.00,,,0.00,WUHU216HW,2013-06-17 18:17:00,
2013-06-17 11:22:00,69.8,55.9,30.05,SW,225,1.1,1.8,61,0.00,,,0.00,WUHU216HW,2013-06-17 18:22:00,
2013-06-17 11:27:00,70.4,55.9,30.05,West,270,1.3,4.0,60,0.00,,,0.00,WUHU216HW,2013-06-17 18:27:00,
2013-06-17 11:32:00,69.8,55.4,30.05,West,270,1.3,3.6,60,0.00,,,0.00,WUHU216HW,2013-06-17 18:32:00,
2013-06-17 11:37:00,69.5,55.1,30.05,West,270,2.7,3.6,60,0.00,,,0.00,WUHU216HW,2013-06-17 18:37:00,
2013-06-17 11:42:00,69.8,55.9,30.05,SW,225,2.7,2.7,61,0.00,,,0.00,WUHU216HW,2013-06-17 18:42:00,
2013-06-17 11:47:00,69.8,55.9,30.05,WSW,248,1.3,3.4,61,0.00,,,0.00,WUHU216HW,2013-06-17 18:47:00,
2013-06-17 11:52:00,70.0,56.0,30.05,WSW,248,3.8,3.8,61,0.00,,,0.00,WUHU216HW,2013-06-17 18:52:00,
2013-06-17 11:57:00,69.7,55.7,30.05,West,270,2.5,3.8,61,0.00,,,0.00,WUHU216HW,2013-06-17 18:57:00,
2013-06-17 12:02:00,69.7,55.7,30.05,NW,315,2.5,3.4,61,0.00,,,0.00,WUHU216HW,2013-06-17 19:02:00,
2013-06-17 12:07:00,69.7,55.7,30.06,SW,225,3.4,4.7,61,0.00,,,0.00,WUHU216HW,2013-06-17 19:07:00,
2013-06-17 12:12:00,69.8,56.3,30.06,West,270,1.3,4.7,62,0.00,,,0.00,WUHU216HW,2013-06-17 19:12:00,
2013-06-17 12:17:00,70.4,56.8,30.05,NNW,338,1.6,3.6,62,0.00,,,0.00,WUHU216HW,2013-06-17 19:17:00,
2013-06-17 12:23:00,70.4,56.3,30.05,SW,225,2.0,2.9,61,0.00,,,0.00,WUHU216HW,2013-06-17 19:23:00,
2013-06-17 12:28:00,70.2,56.6,30.05,NW,315,2.2,3.8,62,0.00,,,0.00,WUHU216HW,2013-06-17 19:28:00,
2013-06-17 12:33:00,70.2,56.6,30.05,WNW,293,1.1,5.8,62,0.00,,,0.00,WUHU216HW,2013-06-17 19:33:00,
2013-06-17 12:38:00,70.4,56.3,30.06,West,270,3.4,7.6,61,0.00,,,0.00,WUHU216HW,2013-06-17 19:38:00,
2013-06-17 12:43:00,70.6,57.0,30.06,SW,225,3.4,7.6,62,0.00,,,0.00,WUHU216HW,2013-06-17 19:43:00,
2013-06-17 12:48:00,70.2,56.2,30.06,West,270,4.7,4.7,61,0.00,,,0.00,WUHU216HW,2013-06-17 19:48:00,
2013-06-17 12:53:00,69.3,56.2,30.06,WSW,248,2.0,4.7,63,0.00,,,0.00,WUHU216HW,2013-06-17 19:53:00,
2013-06-17 12:58:00,68.9,56.3,30.06,NW,315,0.9,4.7,64,0.00,,,0.00,WUHU216HW,2013-06-17 19:58:00,
2013-06-17 13:03:00,69.1,56.4,30.05,SW,225,1.1,4.5,64,0.00,,,0.00,WUHU216HW,2013-06-17 20:03:00,
2013-06-17 13:08:00,69.3,56.6,30.06,SW,225,3.4,4.5,64,0.00,,,0.00,WUHU216HW,2013-06-17 20:08:00,
2013-06-17 13:13:00,68.9,56.7,30.06,WSW,248,1.6,3.4,65,0.00,,,0.00,WUHU216HW,2013-06-17 20:13:00,
2013-06-17 13:18:00,68.9,56.7,30.05,NW,315,2.7,3.4,65,0.00,,,0.00,WUHU216HW,2013-06-17 20:18:00,
2013-06-17 13:23:00,68.4,57.0,30.06,NW,315,2.7,4.3,67,0.00,,,0.00,WUHU216HW,2013-06-17 20:23:00,
2013-06-17 13:28:00,68.4,56.6,30.06,NW,315,2.9,4.3,66,0.00,,,0.00,WUHU216HW,2013-06-17 20:28:00,
2013-06-17 13:34:00,67.3,56.4,30.06,NW,315,4.0,4.0,68,0.00,,,0.00,WUHU216HW,2013-06-17 20:34:00,
2013-06-17 13:39:00,68.0,56.3,30.05,WNW,293,2.2,4.0,66,0.00,,,0.00,WUHU216HW,2013-06-17 20:39:00,
2013-06-17 13:44:00,69.3,57.0,30.05,WSW,248,2.2,4.0,65,0.00,,,0.00,WUHU216HW,2013-06-17 20:44:00,
2013-06-17 13:49:00,69.1,56.8,30.05,WSW,248,2.9,6.3,65,0.00,,,0.00,WUHU216HW,2013-06-17 20:49:00,
2013-06-17 13:54:00,69.7,56.9,30.05,NW,315,3.8,6.3,64,0.00,,,0.00,WUHU216HW,2013-06-17 20:54:00,
2013-06-17 13:59:00,69.1,56.8,30.05,SW,225,2.5,4.5,65,0.00,,,0.00,WUHU216HW,2013-06-17 20:59:00,
2013-06-17 14:04:00,69.5,57.2,30.05,West,270,2.5,4.0,65,0.00,,,0.00,WUHU216HW,2013-06-17 21:04:00,
2013-06-17 14:09:00,68.9,56.7,30.05,NW,315,1.8,4.0,65,0.00,,,0.00,WUHU216HW,2013-06-17 21:09:00,
2013-06-17 14:14:00,68.6,57.2,30.05,West,270,2.7,4.7,67,0.00,,,0.00,WUHU216HW,2013-06-17 21:14:00,
2013-06-17 14:19:00,69.1,56.8,30.05,WSW,248,4.0,4.7,65,0.00,,,0.00,WUHU216HW,2013-06-17 21:19:00,
2013-06-17 14:24:00,70.0,57.2,30.05,West,270,1.3,4.0,64,0.00,,,0.00,WUHU216HW,2013-06-17 21:24:00,
2013-06-17 14:29:00,70.4,56.8,30.05,West,270,2.7,4.3,62,0.00,,,0.00,WUHU216HW,2013-06-17 21:29:00,
2013-06-17 14:34:00,69.8,56.7,30.05,SW,225,1.8,6.9,63,0.00,,,0.00,WUHU216HW,2013-06-17 21:34:00,
2013-06-17 14:39:00,70.2,57.1,30.05,West,270,4.3,6.9,63,0.00,,,0.00,WUHU216HW,2013-06-17 21:39:00,
2013-06-17 14:44:00,70.0,56.9,30.05,NW,315,3.6,6.3,63,0.00,,,0.00,WUHU216HW,2013-06-17 21:44:00,
2013-06-17 14:49:00,70.2,57.1,30.05,WNW,293,2.5,6.3,63,0.00,,,0.00,WUHU216HW,2013-06-17 21:49:00,
2013-06-17 14:55:00,70.6,57.0,30.05,SW,225,3.4,4.9,62,0.00,,,0.00,WUHU216HW,2013-06-17 21:55:00,
2013-06-17 15:00:00,70.2,56.6,30.05,NW,315,3.6,6.7,62,0.00,,,0.00,WUHU216HW,2013-06-17 22:00:00,
2013-06-17 15:05:00,69.7,56.9,30.04,NNW,338,2.9,6.7,64,0.00,,,0.00,WUHU216HW,2013-06-17 22:05:00,
2013-06-17 15:10:00,69.5,56.8,30.05,NW,315,2.9,4.7,64,0.00,,,0.00,WUHU216HW,2013-06-17 22:10:00,
2013-06-17 15:15:00,69.8,57.1,30.05,WSW,248,3.6,4.9,64,0.00,,,0.00,WUHU216HW,2013-06-17 22:15:00,
2013-06-17 15:20:00,69.5,56.8,30.04,North,0,1.1,4.9,64,0.00,,,0.00,WUHU216HW,2013-06-17 22:20:00,
2013-06-17 15:25:00,69.8,57.1,30.04,West,270,1.3,4.3,64,0.00,,,0.00,WUHU216HW,2013-06-17 22:25:00,
2013-06-17 15:30:00,70.4,57.6,30.04,NW,315,3.4,4.3,64,0.00,,,0.00,WUHU216HW,2013-06-17 22:30:00,
2013-06-17 15:35:00,70.4,56.8,30.04,West,270,4.3,5.1,62,0.00,,,0.00,WUHU216HW,2013-06-17 22:35:00,
2013-06-17 15:40:00,69.8,56.7,30.04,NW,315,5.4,5.4,63,0.00,,,0.00,WUHU216HW,2013-06-17 22:40:00,
2013-06-17 15:45:00,69.5,56.8,30.04,WSW,248,3.4,5.4,64,0.00,,,0.00,WUHU216HW,2013-06-17 22:45:00,
2013-06-17 15:50:00,69.7,56.5,30.04,NW,315,2.5,5.4,63,0.00,,,0.00,WUHU216HW,2013-06-17 22:50:00,
2013-06-17 15:55:00,69.5,56.8,30.04,SW,225,6.9,6.9,64,0.00,,,0.00,WUHU216HW,2013-06-17 22:55:00,
2013-06-17 16:00:00,69.5,56.4,30.04,NNW,338,3.8,6.9,63,0.00,,,0.00,WUHU216HW,2013-06-17 23:00:00,
2013-06-17 16:05:00,69.5,56.8,30.04,NW,315,5.1,5.1,64,0.00,,,0.00,WUHU216HW,2013-06-17 23:05:00,
2013-06-17 16:11:00,69.3,56.6,30.04,NNW,338,1.1,5.1,64,0.00,,,0.00,WUHU216HW,2013-06-17 23:11:00,
2013-06-17 16:16:00,69.7,57.3,30.04,WSW,248,3.4,4.9,65,0.00,,,0.00,WUHU216HW,2013-06-17 23:16:00,
2013-06-17 16:21:00,72.4,59.1,30.03,West,270,1.8,3.6,63,0.00,,,0.00,WUHU216HW,2013-06-17 23:21:00,
2013-06-17 16:26:00,73.1,57.9,30.03,West,270,2.5,4.0,59,0.00,,,0.00,WUHU216HW,2013-06-17 23:26:00,
2013-06-17 16:31:00,73.6,58.3,30.03,SW,225,3.4,4.3,59,0.00,,,0.00,WUHU216HW,2013-06-17 23:31:00,
2013-06-17 16:36:00,73.3,58.1,30.03,WSW,248,4.0,4.9,59,0.00,,,0.00,WUHU216HW,2013-06-17 23:36:00,
2013-06-17 16:41:00,73.1,57.3,30.03,SW,225,2.9,5.1,58,0.00,,,0.00,WUHU216HW,2013-06-17 23:41:00,
2013-06-17 16:46:00,70.9,57.2,30.03,WSW,248,3.4,5.4,62,0.00,,,0.00,WUHU216HW,2013-06-17 23:46:00,
2013-06-17 16:51:00,72.0,57.4,30.03,NW,315,2.5,4.9,60,0.00,,,0.00,WUHU216HW,2013-06-17 23:51:00,
2013-06-17 16:56:00,73.1,57.9,30.03,NNW,338,4.7,4.7,59,0.00,,,0.00,WUHU216HW,2013-06-17 23:56:00,
2013-06-17 17:01:00,73.3,57.5,30.03,NNW,338,2.0,4.7,58,0.00,,,0.00,WUHU216HW,2013-06-18 00:01:00,
2013-06-17 17:06:00,72.7,57.5,30.03,West,270,2.7,6.9,59,0.00,,,0.00,WUHU216HW,2013-06-18 00:06:00,
2013-06-17 17:11:00,73.6,57.9,30.03,NW,315,2.2,6.9,58,0.00,,,0.00,WUHU216HW,2013-06-18 00:11:00,
2013-06-17 17:16:00,71.6,57.5,30.03,NNW,338,1.6,4.9,61,0.00,,,0.00,WUHU216HW,2013-06-18 00:16:00,
2013-06-17 17:22:00,73.3,57.5,30.03,West,270,4.3,4.7,58,0.00,,,0.00,WUHU216HW,2013-06-18 00:22:00,
2013-06-17 17:27:00,72.2,57.1,30.02,WNW,293,1.8,6.5,59,0.00,,,0.00,WUHU216HW,2013-06-18 00:27:00,
2013-06-17 17:32:00,72.0,57.4,30.02,NW,315,5.4,6.5,60,0.00,,,0.00,WUHU216HW,2013-06-18 00:32:00,
2013-06-17 17:37:00,71.8,57.3,30.02,NW,315,2.5,5.4,60,0.00,,,0.00,WUHU216HW,2013-06-18 00:37:00,
2013-06-17 17:42:00,70.9,57.2,30.02,NW,315,4.0,4.0,62,0.00,,,0.00,WUHU216HW,2013-06-18 00:42:00,
2013-06-17 17:47:00,71.3,57.2,30.02,West,270,2.7,4.0,61,0.00,,,0.00,WUHU216HW,2013-06-18 00:47:00,
2013-06-17 17:52:00,69.7,57.3,30.02,SW,225,2.0,4.7,65,0.00,,,0.00,WUHU216HW,2013-06-18 00:52:00,
2013-06-17 17:57:00,71.6,58.0,30.02,WSW,248,3.8,6.3,62,0.00,,,0.00,WUHU216HW,2013-06-18 00:57:00,
2013-06-17 18:02:00,72.2,57.1,30.01,WSW,248,4.0,6.3,59,0.00,,,0.00,WUHU216HW,2013-06-18 01:02:00,
2013-06-17 18:07:00,70.0,56.0,30.01,WNW,293,2.5,5.4,61,0.00,,,0.00,WUHU216HW,2013-06-18 01:07:00,
2013-06-17 18:12:00,68.8,56.1,30.01,WNW,293,1.8,3.8,64,0.00,,,0.00,WUHU216HW,2013-06-18 01:12:00,
2013-06-17 18:17:00,68.9,56.7,30.01,SW,225,0.4,3.4,65,0.00,,,0.00,WUHU216HW,2013-06-18 01:17:00,
2013-06-17 18:22:00,70.2,56.6,30.01,NW,315,4.0,4.0,62,0.00,,,0.00,WUHU216HW,2013-06-18 01:22:00,
2013-06-17 18:27:00,69.7,56.1,30.01,WSW,248,2.5,4.0,62,0.00,,,0.00,WUHU216HW,2013-06-18 01:27:00,
2013-06-17 18:32:00,68.4,56.2,30.01,West,270,2.2,4.0,65,0.00,,,0.00,WUHU216HW,2013-06-18 01:32:00,
2013-06-17 18:38:00,68.0,55.8,30.01,SW,225,3.6,3.6,65,0.00,,,0.00,WUHU216HW,2013-06-18 01:38:00,
2013-06-17 18:43:00,67.9,56.1,30.01,West,270,1.3,4.0,66,0.00,,,0.00,WUHU216HW,2013-06-18 01:43:00,
2013-06-17 18:48:00,67.5,55.7,30.01,NW,315,1.8,4.0,66,0.00,,,0.00,WUHU216HW,2013-06-18 01:48:00,
2013-06-17 18:53:00,67.0,55.6,30.01,WSW,248,0.9,6.0,67,0.00,,,0.00,WUHU216HW,2013-06-18 01:53:00,
2013-06-17 18:58:00,67.1,55.8,30.00,West,270,0.4,6.0,67,0.00,,,0.00,WUHU216HW,2013-06-18 01:58:00,
2013-06-17 19:03:00,67.3,56.0,30.01,NW,315,1.1,3.1,67,0.00,,,0.00,WUHU216HW,2013-06-18 02:03:00,
2013-06-17 19:08:00,66.4,55.9,30.01,North,0,0.2,3.1,69,0.00,,,0.00,WUHU216HW,2013-06-18 02:08:00,
2013-06-17 19:13:00,67.0,56.1,30.01,WSW,248,1.1,3.1,68,0.00,,,0.00,WUHU216HW,2013-06-18 02:13:00,
2013-06-17 19:18:00,67.7,56.4,30.01,WSW,248,1.1,5.8,67,0.00,,,0.00,WUHU216HW,2013-06-18 02:18:00,
2013-06-17 19:20:00,67.3,56.0,30.01,West,270,4.3,4.3,67,0.00,,,0.00,WUHU216HW,2013-06-18 02:20:00,
2013-06-17 19:23:00,67.3,56.0,30.01,West,270,4.3,5.8,67,0.00,,,0.00,WUHU216HW,2013-06-18 02:23:00,
2013-06-17 19:28:00,67.3,56.0,30.01,West,270,4.3,4.3,67,0.00,,,0.00,WUHU216HW,2013-06-18 02:28:00,
2013-06-17 20:01:00,62.6,54.5,30.00,NW,315,0.2,0.2,75,0.00,,,0.00,WUHU216HW,2013-06-18 03:01:00,
2013-06-17 20:06:00,62.5,54.4,30.00,West,270,3.4,3.4,75,0.00,,,0.00,WUHU216HW,2013-06-18 03:06:00,
2013-06-17 20:11:00,62.3,54.5,30.00,West,270,1.1,3.6,76,0.00,,,0.00,WUHU216HW,2013-06-18 03:11:00,
2013-06-17 20:16:00,62.3,54.5,30.00,SW,225,2.9,3.6,76,0.00,,,0.00,WUHU216HW,2013-06-18 03:16:00,
2013-06-17 20:21:00,61.9,54.3,30.00,SW,225,1.8,2.9,76,0.00,,,0.00,WUHU216HW,2013-06-18 03:21:00,
2013-06-17 20:26:00,61.9,54.6,30.00,NW,315,3.8,3.8,77,0.00,,,0.00,WUHU216HW,2013-06-18 03:26:00,
2013-06-17 20:31:00,61.7,54.1,30.00,WSW,248,2.0,3.8,76,0.00,,,0.00,WUHU216HW,2013-06-18 03:31:00,
2013-06-17 20:36:00,61.6,53.9,30.00,SW,225,0.9,2.2,76,0.00,,,0.00,WUHU216HW,2013-06-18 03:36:00,
2013-06-17 20:41:00,61.4,54.1,30.00,WSW,248,0.9,2.0,77,0.00,,,0.00,WUHU216HW,2013-06-18 03:41:00,
2013-06-17 20:46:00,61.0,53.8,30.00,WNW,293,0.7,2.0,77,0.00,,,0.00,WUHU216HW,2013-06-18 03:46:00,
2013-06-17 20:51:00,61.0,53.8,30.00,West,270,0.4,1.8,77,0.00,,,0.00,WUHU216HW,2013-06-18 03:51:00,
2013-06-17 20:56:00,61.0,54.2,30.00,West,270,1.8,2.2,78,0.00,,,0.00,WUHU216HW,2013-06-18 03:56:00,
2013-06-17 21:01:00,60.8,53.6,30.00,WSW,248,0.4,2.2,77,0.00,,,0.00,WUHU216HW,2013-06-18 04:01:00,
2013-06-17 21:02:00,60.8,53.6,30.00,WSW,248,0.0,2.2,77,0.00,,,0.00,WUHU216HW,2013-06-18 04:02:00,
2013-06-17 21:03:00,60.8,53.6,30.00,West,270,0.7,2.2,77,0.00,,,0.00,WUHU216HW,2013-06-18 04:03:00,
2013-06-17 21:08:00,60.8,54.0,30.00,WSW,248,1.3,1.3,78,0.00,,,0.00,WUHU216HW,2013-06-18 04:08:00,
2013-06-17 21:13:00,60.7,53.8,30.00,West,270,1.1,1.6,78,0.00,,,0.00,WUHU216HW,2013-06-18 04:13:00,
2013-06-17 21:18:00,60.7,53.5,30.00,SSW,203,0.4,1.6,77,0.00,,,0.00,WUHU216HW,2013-06-18 04:18:00,
2013-06-17 21:23:00,60.7,53.8,30.00,West,270,2.7,2.7,78,0.00,,,0.00,WUHU216HW,2013-06-18 04:23:00,
2013-06-17 21:28:00,60.5,53.6,30.01,SW,225,0.4,2.7,78,0.00,,,0.00,WUHU216HW,2013-06-18 04:28:00,
2013-06-17 22:00:00,60.1,53.3,30.01,NW,315,0.2,0.2,78,0.00,,,0.00,WUHU216HW,2013-06-18 05:00:00,
2013-06-17 22:01:00,60.1,53.3,30.01,NW,315,0.2,0.2,78,0.00,,,0.00,WUHU216HW,2013-06-18 05:01:00,
2013-06-17 22:06:00,60.1,53.3,30.01,NW,315,0.2,0.2,78,0.00,,,0.00,WUHU216HW,2013-06-18 05:06:00,
2013-06-17 23:01:00,62.1,55.2,30.01,SE,135,1.1,1.1,78,0.00,,,0.00,WUHU216HW,2013-06-18 06:01:00,
2013-06-17 23:06:00,62.3,54.9,30.00,South,180,1.3,1.3,77,0.00,,,0.00,WUHU216HW,2013-06-18 06:06:00,
2013-06-17 23:11:00,62.6,55.6,30.00,West,270,0.9,1.8,78,0.00,,,0.00,WUHU216HW,2013-06-18 06:11:00,
2013-06-17 23:16:00,62.8,55.4,30.00,WNW,293,0.7,2.0,77,0.00,,,0.00,WUHU216HW,2013-06-18 06:16:00,
2013-06-17 23:21:00,63.0,55.6,30.00,SW,225,2.0,2.2,77,0.00,,,0.00,WUHU216HW,2013-06-18 06:21:00,
2013-06-17 23:26:00,62.6,54.9,30.00,SW,225,1.1,2.2,76,0.00,,,0.00,WUHU216HW,2013-06-18 06:26:00,
2013-06-17 23:31:00,63.0,55.6,30.00,SW,225,0.0,1.8,77,0.00,,,0.00,WUHU216HW,2013-06-18 06:31:00,
2013-06-17 23:36:00,63.4,55.6,29.99,WSW,248,1.1,1.8,76,0.00,,,0.00,WUHU216HW,2013-06-18 06:36:00,
2013-06-17 23:41:00,63.4,55.6,30.00,SW,225,1.1,1.8,76,0.00,,,0.00,WUHU216HW,2013-06-18 06:41:00,
2013-06-17 23:46:00,63.0,55.3,29.99,NNE,23,0.2,1.8,76,0.00,,,0.00,WUHU216HW,2013-06-18 06:46:00,
2013-06-17 23:51:00,62.6,54.5,29.99,SW,225,0.4,1.8,75,0.00,,,0.00,WUHU216HW,2013-06-18 06:51:00,
2013-06-17 23:56:00,62.5,54.7,29.99,WNW,293,1.1,1.6,76,0.00,,,0.00,WUHU216HW,2013-06-18 06:56:00,